createdAt,value
2018-07-10T17:12:14.835Z,95333.00
2018-07-10T17:14:56.439Z,95345.00
2018-07-10T17:17:26.492Z,95364.00
2018-07-10T17:20:14.713Z,95356.00
2018-07-10T17:22:44.477Z,95348.00
2018-07-10T17:25:16.062Z,95329.00
2018-07-10T17:27:49.245Z,95335.00
2018-07-10T17:30:19.544Z,95334.00
2018-07-10T17:32:49.420Z,95356.00
2018-07-10T17:35:19.428Z,95351.00
2018-07-10T17:37:52.316Z,95348.00
2018-07-10T17:40:21.982Z,95357.00
2018-07-10T17:42:51.585Z,95357.00
2018-07-10T17:45:24.434Z,95349.00
2018-07-10T17:47:58.994Z,95347.00
2018-07-10T17:50:29.096Z,95356.00
2018-07-10T17:53:00.182Z,95360.00
2018-07-10T17:55:30.403Z,95362.00
2018-07-10T18:00:38.083Z,95368.00
2018-07-10T18:03:07.780Z,95365.00
2018-07-10T18:05:37.690Z,95373.00
2018-07-10T18:08:08.378Z,95373.00
2018-07-10T18:10:40.056Z,95368.00
2018-07-10T18:13:10.232Z,95363.00
2018-07-10T18:15:40.242Z,95364.00
2018-07-10T18:18:10.536Z,95365.00
2018-07-10T18:20:40.137Z,95367.00
2018-07-10T18:23:11.516Z,95360.00
2018-07-10T18:25:41.607Z,95355.00
2018-07-10T18:28:11.396Z,95345.00
2018-07-10T18:30:41.595Z,95346.00
2018-07-10T18:33:11.553Z,95352.00
2018-07-10T18:35:41.626Z,95345.00
2018-07-10T18:38:12.129Z,95351.00
2018-07-10T18:40:42.645Z,95352.00
2018-07-10T18:43:13.111Z,95355.00
2018-07-10T18:45:42.909Z,95355.00
2018-07-10T18:48:12.564Z,95362.00
2018-07-10T18:50:43.415Z,95354.00
2018-07-10T18:53:13.843Z,95349.00
2018-07-10T18:55:44.653Z,95363.00
2018-07-10T18:58:22.859Z,95355.00
2018-07-10T19:03:10.962Z,95365.00
2018-07-10T19:05:49.651Z,95379.00
2018-07-10T19:08:20.790Z,95376.00
2018-07-10T19:10:54.894Z,95376.00
2018-07-10T19:13:35.012Z,95381.00
2018-07-10T19:16:05.572Z,95390.00
2018-07-10T19:18:39.374Z,95391.00
2018-07-10T19:21:23.590Z,95389.00
2018-07-10T19:23:54.498Z,95394.00
2018-07-10T19:26:27.644Z,95388.00
2018-07-10T19:30:12.778Z,95388.00
2018-07-10T19:32:42.872Z,95392.00
2018-07-10T19:35:12.405Z,95394.00
2018-07-10T19:37:44.502Z,95403.00
2018-07-10T19:40:14.517Z,95403.00
2018-07-10T19:42:44.852Z,95404.00
2018-07-10T19:45:15.898Z,95390.00
2018-07-10T19:47:45.987Z,95392.00
2018-07-10T19:50:19.396Z,95393.00
2018-07-10T19:52:55.873Z,95398.00
2018-07-10T19:55:29.124Z,95398.00
2018-07-10T19:58:11.821Z,95403.00
2018-07-10T20:00:51.117Z,95405.00
2018-07-10T20:04:04.780Z,95394.00
2018-07-10T20:08:46.375Z,95377.00
2018-07-10T20:11:28.110Z,95384.00
2018-07-10T20:13:57.903Z,95383.00
2018-07-10T20:16:51.700Z,95386.00
2018-07-10T20:19:32.261Z,95384.00
2018-07-10T20:22:18.982Z,95380.00
2018-07-10T20:25:34.212Z,95377.00
2018-07-10T20:28:13.391Z,95389.00
2018-07-10T20:30:59.874Z,95388.00
2018-07-10T20:33:40.996Z,95389.00
2018-07-10T20:36:11.388Z,95392.00
2018-07-10T20:38:41.117Z,95390.00
2018-07-10T20:41:10.640Z,95376.00
2018-07-10T20:43:45.400Z,95381.00
2018-07-10T20:46:15.988Z,95373.00
2018-07-10T20:48:57.371Z,95372.00
2018-07-10T20:53:44.394Z,95379.00
2018-07-10T20:56:54.853Z,95380.00
2018-07-10T20:59:34.798Z,95372.00
2018-07-10T21:02:08.901Z,95367.00
2018-07-10T21:05:02.137Z,95355.00
2018-07-10T21:07:32.185Z,95352.00
2018-07-10T21:10:27.273Z,95356.00
2018-07-10T21:13:09.782Z,95363.00
2018-07-10T21:15:55.767Z,95364.00
2018-07-10T21:20:44.937Z,95348.00
2018-07-10T21:23:33.625Z,95351.00
2018-07-10T21:26:22.400Z,95347.00
2018-07-10T21:28:55.863Z,95349.00
2018-07-10T21:44:47.172Z,95333.00
2018-07-10T21:47:34.796Z,95329.00
2018-07-10T21:50:06.384Z,95323.00
2018-07-10T21:52:36.223Z,95324.00
2018-07-10T21:55:05.835Z,95317.00
2018-07-10T21:57:41.691Z,95324.00
2018-07-10T22:00:11.826Z,95328.00
2018-07-10T22:02:41.377Z,95341.00
2018-07-10T22:05:10.872Z,95347.00
2018-07-10T22:07:41.432Z,95346.00
2018-07-10T22:10:10.933Z,95341.00
2018-07-10T22:12:46.938Z,95333.00
2018-07-10T22:15:16.442Z,95337.00
2018-07-10T22:17:46.700Z,95345.00
2018-07-10T22:20:17.234Z,95345.00
2018-07-10T22:22:46.758Z,95337.00
2018-07-10T22:25:16.304Z,95340.00
2018-07-10T22:27:45.961Z,95325.00
2018-07-10T22:30:21.872Z,95320.00
2018-07-10T22:32:57.995Z,95319.00
2018-07-10T22:35:27.492Z,95318.00
2018-07-10T22:37:57.520Z,95315.00
2018-07-10T22:40:27.034Z,95323.00
2018-07-10T22:42:56.730Z,95326.00
2018-07-10T22:45:27.641Z,95335.00
2018-07-10T22:47:57.172Z,95332.00
2018-07-10T22:50:26.853Z,95331.00
2018-07-10T22:52:59.952Z,95327.00
2018-07-10T22:55:31.302Z,95315.00
2018-07-10T22:58:07.111Z,95323.00
2018-07-10T23:00:38.920Z,95328.00
2018-07-10T23:03:24.552Z,95318.00
2018-07-10T23:05:54.847Z,95326.00
2018-07-10T23:08:36.099Z,95315.00
2018-07-10T23:11:08.433Z,95322.00
2018-07-10T23:13:40.655Z,95316.00
2018-07-10T23:16:10.152Z,95313.00
2018-07-10T23:18:40.299Z,95307.00
2018-07-10T23:21:15.873Z,95307.00
2018-07-10T23:23:45.457Z,95307.00
2018-07-10T23:26:16.686Z,95294.00
2018-07-10T23:28:51.044Z,95296.00
2018-07-10T23:31:20.549Z,95297.00
2018-07-10T23:34:23.336Z,95301.00
2018-07-10T23:36:55.730Z,95310.00
2018-07-10T23:39:37.881Z,95302.00
2018-07-10T23:42:42.168Z,95291.00
2018-07-10T23:45:42.460Z,95294.00
2018-07-10T23:48:12.597Z,95284.00
2018-07-10T23:50:42.143Z,95289.00
2018-07-10T23:54:15.095Z,95286.00
2018-07-10T23:56:44.669Z,95280.00
2018-07-10T23:59:14.135Z,95276.00
